createdAt,value
2023-04-01T00:00:47.157Z,15.80
2023-04-01T00:03:50.782Z,16.08
2023-04-01T00:06:53.893Z,15.35
2023-04-01T00:09:56.278Z,15.77
2023-04-01T00:12:58.757Z,15.25
2023-04-01T00:16:03.386Z,15.27
2023-04-01T00:19:06.667Z,16.33
2023-04-01T00:22:12.531Z,15.88
2023-04-01T00:25:15.687Z,16.05
2023-04-01T00:28:19.314Z,17.38
2023-04-01T00:31:21.858Z,15.03
2023-04-01T00:34:25.069Z,15.60
2023-04-01T00:37:29.051Z,14.75
2023-04-01T00:40:36.445Z,15.37
2023-04-01T00:43:38.850Z,16.08
2023-04-01T00:46:41.358Z,14.63
2023-04-01T00:49:49.469Z,15.15
2023-04-01T00:52:53.249Z,13.93
2023-04-01T00:56:05.685Z,14.63
2023-04-01T00:59:14.317Z,14.25
2023-04-01T01:02:17.274Z,14.97
2023-04-01T01:05:34.087Z,15.50
2023-04-01T01:08:53.760Z,14.52
2023-04-01T01:12:02.646Z,14.57
2023-04-01T01:15:22.009Z,14.15
2023-04-01T01:18:42.376Z,13.55
2023-04-01T01:21:59.258Z,14.10
2023-04-01T01:25:05.004Z,13.85
2023-04-01T01:28:31.404Z,12.05
2023-04-01T01:31:43.980Z,13.57
2023-04-01T01:35:27.563Z,11.93
2023-04-01T01:38:34.827Z,12.23
2023-04-01T01:41:42.935Z,12.02
2023-04-01T01:44:48.375Z,12.27
2023-04-01T01:47:52.397Z,11.07
2023-04-01T01:50:55.042Z,11.48
2023-04-01T01:53:57.944Z,11.60
2023-04-01T01:57:26.522Z,11.70
2023-04-01T02:00:35.554Z,11.52
2023-04-01T02:03:40.715Z,10.20
2023-04-01T02:06:53.465Z,9.40
2023-04-01T02:09:56.498Z,8.10
2023-04-01T02:13:02.818Z,7.63
2023-04-01T02:16:14.209Z,7.80
2023-04-01T02:19:23.479Z,5.85
2023-04-01T02:22:30.607Z,6.20
2023-04-01T02:25:37.452Z,4.93
2023-04-01T02:28:41.554Z,4.85
2023-04-01T02:31:44.349Z,4.75
2023-04-01T02:34:48.866Z,4.97
2023-04-01T02:37:53.652Z,3.87
2023-04-01T02:41:01.940Z,4.10
2023-04-01T02:44:04.537Z,4.03
2023-04-01T02:47:07.081Z,4.20
2023-04-01T02:50:10.961Z,4.20
2023-04-01T02:53:13.413Z,4.60
2023-04-01T02:56:15.958Z,3.85
2023-04-01T02:59:18.605Z,3.60
2023-04-01T03:02:21.269Z,4.13
2023-04-01T03:05:24.818Z,3.13
2023-04-01T03:08:27.419Z,3.00
2023-04-01T03:11:30.204Z,3.10
2023-04-01T03:14:32.599Z,3.28
2023-04-01T03:17:34.978Z,3.10
2023-04-01T03:20:37.449Z,2.80
2023-04-01T03:23:39.798Z,2.75
2023-04-01T03:26:42.448Z,2.53
2023-04-01T03:29:45.410Z,2.97
2023-04-01T03:32:49.060Z,3.97
2023-04-01T03:35:53.250Z,3.83
2023-04-01T03:38:55.779Z,4.03
2023-04-01T03:42:08.386Z,2.80
2023-04-01T03:45:12.886Z,3.53
2023-04-01T03:48:16.421Z,2.80
2023-04-01T03:51:18.908Z,3.15
2023-04-01T03:54:21.704Z,4.32
2023-04-01T03:57:24.369Z,4.07
2023-04-01T04:00:27.496Z,3.92
2023-04-01T04:03:31.386Z,3.38
2023-04-01T04:06:34.545Z,2.72
2023-04-01T04:09:37.123Z,2.60
2023-04-01T04:12:39.679Z,3.88
2023-04-01T04:15:42.154Z,2.95
2023-04-01T04:18:44.595Z,2.40
2023-04-01T04:21:47.109Z,2.35
2023-04-01T04:24:49.615Z,2.90
2023-04-01T04:27:52.034Z,2.45
2023-04-01T04:30:55.988Z,2.58
2023-04-01T04:34:00.921Z,2.65
2023-04-01T04:37:03.738Z,2.25
2023-04-01T04:40:11.612Z,3.27
2023-04-01T04:43:17.113Z,2.60
2023-04-01T04:46:21.055Z,2.50
2023-04-01T04:49:26.878Z,2.47
2023-04-01T04:52:29.637Z,2.40
2023-04-01T04:55:32.308Z,2.50
2023-04-01T04:58:55.426Z,2.35
2023-04-01T05:02:02.406Z,2.85
2023-04-01T05:05:06.083Z,2.83
2023-04-01T05:08:08.762Z,2.75
2023-04-01T05:11:14.817Z,3.07
2023-04-01T05:14:19.062Z,3.08
2023-04-01T05:17:30.456Z,2.75
2023-04-01T05:20:33.181Z,3.23
2023-04-01T05:23:35.866Z,5.30
2023-04-01T05:26:38.659Z,11.00
2023-04-01T05:29:41.219Z,12.50
2023-04-01T05:32:49.227Z,9.55
2023-04-01T05:35:51.755Z,6.47
2023-04-01T05:38:56.704Z,7.40
2023-04-01T05:42:01.229Z,10.60
2023-04-01T05:45:03.907Z,11.30
2023-04-01T05:48:24.661Z,12.13
2023-04-01T05:51:27.769Z,7.27
2023-04-01T05:54:30.702Z,6.28
2023-04-01T05:57:33.717Z,5.70
2023-04-01T06:00:36.918Z,4.00
2023-04-01T06:03:39.740Z,4.20
2023-04-01T06:06:42.314Z,4.38
2023-04-01T06:09:47.274Z,4.47
2023-04-01T06:13:14.115Z,3.60
2023-04-01T06:16:22.504Z,4.10
2023-04-01T06:19:58.403Z,3.67
2023-04-01T06:23:33.557Z,5.00
2023-04-01T06:26:44.916Z,4.57
2023-04-01T06:30:05.549Z,4.28
2023-04-01T06:33:17.193Z,4.80
2023-04-01T06:36:34.724Z,3.53
2023-04-01T06:40:14.741Z,4.07
2023-04-01T06:43:41.535Z,4.30
2023-04-01T06:47:26.549Z,4.33
2023-04-01T06:50:44.923Z,4.68
2023-04-01T06:54:12.179Z,5.38
2023-04-01T06:57:42.212Z,5.60
2023-04-01T07:00:47.719Z,3.85
2023-04-01T07:04:00.450Z,3.90
2023-04-01T07:07:17.986Z,4.18
2023-04-01T07:10:35.895Z,6.57
2023-04-01T07:14:03.441Z,8.63
2023-04-01T07:17:16.266Z,9.80
2023-04-01T07:20:28.524Z,8.63
2023-04-01T07:23:40.213Z,7.95
2023-04-01T07:26:57.164Z,7.90
2023-04-01T07:30:13.755Z,8.60
2023-04-01T07:33:58.767Z,7.88
2023-04-01T07:37:19.851Z,6.78
2023-04-01T07:40:31.485Z,6.38
2023-04-01T07:43:48.635Z,6.82
2023-04-01T07:47:18.858Z,6.13
2023-04-01T07:50:33.574Z,6.22
2023-04-01T07:53:47.473Z,6.47
2023-04-01T07:56:55.909Z,6.03
2023-04-01T08:00:19.616Z,4.97
2023-04-01T08:04:12.752Z,5.27
2023-04-01T08:07:21.553Z,5.07
2023-04-01T08:11:19.170Z,5.43
2023-04-01T08:15:06.467Z,5.70
2023-04-01T08:19:03.094Z,6.43
2023-04-01T08:22:15.532Z,6.55
2023-04-01T08:25:26.174Z,6.82
2023-04-01T08:28:45.694Z,6.37
2023-04-01T08:32:12.307Z,3.47
2023-04-01T08:35:18.257Z,13.35
2023-04-01T08:38:58.886Z,5.30
2023-04-01T08:42:10.620Z,4.80
2023-04-01T08:45:52.796Z,6.18
2023-04-01T08:49:20.050Z,5.45
2023-04-01T08:52:22.620Z,5.25
2023-04-01T08:55:55.754Z,3.83
2023-04-01T08:59:02.824Z,3.30
2023-04-01T09:02:51.024Z,2.80
2023-04-01T09:06:25.514Z,4.05
2023-04-01T09:09:51.245Z,2.67
2023-04-01T09:13:09.195Z,3.10
2023-04-01T09:16:40.003Z,2.67
2023-04-01T09:20:17.210Z,2.78
2023-04-01T09:23:49.173Z,3.10
2023-04-01T09:26:51.634Z,2.60
2023-04-01T09:30:01.158Z,3.45
2023-04-01T09:33:21.904Z,3.33
2023-04-01T09:36:43.054Z,3.07
2023-04-01T09:39:51.302Z,3.22
2023-04-01T09:43:18.692Z,5.72
2023-04-01T09:46:35.168Z,3.60
2023-04-01T09:49:44.032Z,3.38
2023-04-01T09:53:09.778Z,2.90
2023-04-01T09:56:49.456Z,2.90
2023-04-01T10:00:29.941Z,2.90
2023-04-01T10:03:46.734Z,2.28
2023-04-01T10:06:57.572Z,2.65
2023-04-01T10:10:38.417Z,3.53
2023-04-01T10:13:59.671Z,3.67
2023-04-01T10:17:38.132Z,3.13
2023-04-01T10:21:13.702Z,2.90
2023-04-01T10:24:38.930Z,2.25
2023-04-01T10:28:04.329Z,3.42
2023-04-01T10:32:09.825Z,2.72
2023-04-01T10:35:30.127Z,2.70
2023-04-01T10:38:51.552Z,2.88
2023-04-01T10:42:19.040Z,2.90
2023-04-01T10:46:17.247Z,2.80
2023-04-01T10:49:57.899Z,3.13
2023-04-01T10:53:40.587Z,3.00
2023-04-01T10:57:49.169Z,2.60
2023-04-01T11:01:40.378Z,2.78
2023-04-01T11:05:30.124Z,31.08
2023-04-01T11:09:00.870Z,4.22
2023-04-01T11:12:40.879Z,2.88
2023-04-01T11:16:25.627Z,2.88
2023-04-01T11:19:55.490Z,3.08
2023-04-01T11:23:23.966Z,3.03
2023-04-01T11:27:00.283Z,3.30
2023-04-01T11:30:49.989Z,3.05
2023-04-01T11:34:23.647Z,3.90
2023-04-01T11:37:51.493Z,3.30
2023-04-01T11:41:14.674Z,3.72
2023-04-01T11:44:44.815Z,3.30
2023-04-01T11:48:02.785Z,3.53
2023-04-01T11:51:40.922Z,3.50
2023-04-01T11:55:21.121Z,2.95
2023-04-01T11:58:38.381Z,3.13
2023-04-01T12:01:43.570Z,3.00
2023-04-01T12:04:55.809Z,6.70
2023-04-01T12:08:23.768Z,2.43
2023-04-01T12:11:44.810Z,10.38
2023-04-01T12:15:18.140Z,3.53
2023-04-01T12:18:51.205Z,1.85
2023-04-01T12:22:07.849Z,2.45
2023-04-01T12:25:47.343Z,2.40
2023-04-01T12:29:04.588Z,2.50
2023-04-01T12:32:26.185Z,2.10
2023-04-01T12:36:23.102Z,8.80
2023-04-01T12:39:40.713Z,2.22
2023-04-01T12:43:41.791Z,1.83
2023-04-01T12:46:55.833Z,2.35
2023-04-01T12:49:58.126Z,9.10
2023-04-01T12:53:09.254Z,5.82
2023-04-01T12:56:29.714Z,2.40
2023-04-01T12:59:38.158Z,2.08
2023-04-01T13:02:49.578Z,2.45
2023-04-01T13:05:54.803Z,2.20
2023-04-01T13:09:29.291Z,4.57
2023-04-01T13:12:51.165Z,4.40
2023-04-01T13:16:06.400Z,2.93
2023-04-01T13:19:18.791Z,2.30
2023-04-01T13:22:33.992Z,5.97
2023-04-01T13:26:11.300Z,2.50
2023-04-01T13:29:23.025Z,2.72
2023-04-01T13:32:51.530Z,1.90
2023-04-01T13:36:12.617Z,1.50
2023-04-01T13:39:36.595Z,2.00
2023-04-01T13:42:45.259Z,2.05
2023-04-01T13:49:57.838Z,2.00
2023-04-01T13:53:15.450Z,4.07
2023-04-01T13:56:27.739Z,3.80
2023-04-01T14:00:13.382Z,2.78
2023-04-01T14:03:30.018Z,4.90
2023-04-01T14:07:06.156Z,3.83
2023-04-01T14:10:41.625Z,3.20
2023-04-01T14:14:06.519Z,2.90
2023-04-01T14:17:22.529Z,3.35
2023-04-01T14:20:41.846Z,3.75
2023-04-01T14:24:16.380Z,2.90
2023-04-01T14:27:56.314Z,4.10
2023-04-01T14:31:05.670Z,3.78
2023-04-01T14:34:20.060Z,3.20
2023-04-01T14:38:00.146Z,4.15
2023-04-01T14:41:27.333Z,3.47
2023-04-01T14:44:53.627Z,5.43
2023-04-01T14:48:36.563Z,3.30
2023-04-01T14:51:40.985Z,4.82
2023-04-01T14:54:47.310Z,2.30
2023-04-01T14:58:01.334Z,1.80
2023-04-01T15:01:18.658Z,1.70
2023-04-01T15:04:30.600Z,1.55
2023-04-01T15:07:48.130Z,1.40
2023-04-01T15:10:56.860Z,3.10
2023-04-01T15:14:18.315Z,3.17
2023-04-01T15:17:57.209Z,2.15
2023-04-01T15:21:19.918Z,1.43
2023-04-01T15:24:35.989Z,3.30
2023-04-01T15:28:01.423Z,1.38
2023-04-01T15:31:09.888Z,1.67
2023-04-01T15:34:34.005Z,1.50
2023-04-01T15:37:56.380Z,1.33
2023-04-01T15:41:13.219Z,2.40
2023-04-01T15:44:54.510Z,3.03
2023-04-01T15:48:07.502Z,3.85
2023-04-01T15:51:09.859Z,3.22
2023-04-01T15:54:49.145Z,0.90
2023-04-01T15:58:18.741Z,2.08
2023-04-01T16:01:44.866Z,6.18
2023-04-01T16:05:19.024Z,6.70
2023-04-01T16:08:43.013Z,3.13
2023-04-01T16:12:13.530Z,3.03
2023-04-01T16:15:27.038Z,3.78
2023-04-01T16:18:51.238Z,4.30
2023-04-01T16:22:16.824Z,6.22
2023-04-01T16:25:35.896Z,6.65
2023-04-01T16:28:54.239Z,8.00
2023-04-01T16:32:17.745Z,7.32
2023-04-01T16:36:01.082Z,6.55
2023-04-01T16:39:28.484Z,6.53
2023-04-01T16:42:55.330Z,6.70
2023-04-01T16:46:14.710Z,6.55
2023-04-01T16:49:33.047Z,7.40
2023-04-01T16:52:35.402Z,7.85
2023-04-01T16:56:06.015Z,9.00
2023-04-01T16:59:11.752Z,7.28
2023-04-01T17:02:19.645Z,5.40
2023-04-01T17:05:40.063Z,5.75
2023-04-01T17:09:22.100Z,5.80
2023-04-01T17:12:30.616Z,7.00
2023-04-01T17:16:01.667Z,10.07
2023-04-01T17:19:28.259Z,10.50
2023-04-01T17:22:40.425Z,11.68
2023-04-01T17:26:05.538Z,11.30
2023-04-01T17:29:24.673Z,9.23
2023-04-01T17:32:43.350Z,5.60
2023-04-01T17:35:54.532Z,8.40
2023-04-01T17:39:08.378Z,5.50
2023-04-01T17:42:17.660Z,5.60
2023-04-01T17:45:34.205Z,4.47
2023-04-01T17:48:51.134Z,4.15
2023-04-01T17:52:05.758Z,3.60
2023-04-01T17:55:33.531Z,3.50
2023-04-01T17:58:47.626Z,4.47
2023-04-01T18:02:01.810Z,4.85
2023-04-01T18:05:13.622Z,3.10
2023-04-01T18:08:27.814Z,1.80
2023-04-01T18:12:01.448Z,1.73
2023-04-01T18:15:29.407Z,2.05
2023-04-01T18:18:32.448Z,1.50
2023-04-01T18:21:51.746Z,3.38
2023-04-01T18:25:06.114Z,4.45
2023-04-01T18:28:23.169Z,2.72
2023-04-01T18:31:33.794Z,1.38
2023-04-01T18:34:55.233Z,1.70
2023-04-01T18:38:03.846Z,1.67
2023-04-01T18:41:14.337Z,2.13
2023-04-01T18:44:38.619Z,2.00
2023-04-01T18:47:51.616Z,1.50
2023-04-01T18:50:58.998Z,2.13
2023-04-01T18:54:11.182Z,2.80
2023-04-01T18:57:14.692Z,6.43
2023-04-01T19:00:23.552Z,8.05
2023-04-01T19:04:02.651Z,3.65
2023-04-01T19:07:27.261Z,3.17
2023-04-01T19:10:47.154Z,2.80
2023-04-01T19:13:52.789Z,3.20
2023-04-01T19:17:23.546Z,4.22
2023-04-01T19:20:43.280Z,4.03
2023-04-01T19:24:39.602Z,3.57
2023-04-01T19:27:52.812Z,3.00
2023-04-01T19:31:00.597Z,7.18
2023-04-01T19:34:35.301Z,4.50
2023-04-01T19:37:45.925Z,3.47
2023-04-01T19:41:21.261Z,3.10
2023-04-01T19:44:52.150Z,2.53
2023-04-01T19:48:19.002Z,3.13
2023-04-01T19:51:32.684Z,2.92
2023-04-01T19:54:57.959Z,2.67
2023-04-01T19:58:29.918Z,3.43
2023-04-01T20:02:00.878Z,2.60
2023-04-01T20:05:46.370Z,3.92
2023-04-01T20:09:24.366Z,3.30
2023-04-01T20:13:00.199Z,2.97
2023-04-01T20:16:08.649Z,2.75
2023-04-01T20:19:12.512Z,2.47
2023-04-01T20:22:30.901Z,2.70
2023-04-01T20:25:49.571Z,2.85
2023-04-01T20:29:24.104Z,3.10
2023-04-01T20:32:36.275Z,4.70
2023-04-01T20:36:07.021Z,8.57
2023-04-01T20:39:47.027Z,6.40
2023-04-01T20:43:04.585Z,8.07
2023-04-01T20:46:28.447Z,6.80
2023-04-01T20:49:50.102Z,8.63
2023-04-01T20:53:05.676Z,9.20
2023-04-01T20:56:34.143Z,10.93
2023-04-01T20:59:48.226Z,10.07
2023-04-01T21:03:14.970Z,6.72
2023-04-01T21:06:43.710Z,5.10
2023-04-01T21:10:18.391Z,4.40
2023-04-01T21:13:21.023Z,3.60
2023-04-01T21:16:47.960Z,3.00
2023-04-01T21:20:13.159Z,3.15
2023-04-01T21:23:23.864Z,4.32
2023-04-01T21:26:45.824Z,4.32
2023-04-01T21:30:08.466Z,4.20
2023-04-01T21:33:25.120Z,8.40
2023-04-01T21:36:48.618Z,7.82
2023-04-01T21:40:17.774Z,6.67
2023-04-01T21:43:22.970Z,6.13
2023-04-01T21:47:05.214Z,4.35
2023-04-01T21:50:26.248Z,4.25
2023-04-01T21:53:40.786Z,3.20
2023-04-01T21:57:13.857Z,2.88
2023-04-01T22:00:25.679Z,2.70
2023-04-01T22:03:46.048Z,2.67
2023-04-01T22:07:06.271Z,2.45
2023-04-01T22:10:20.649Z,2.97
2023-04-01T22:13:51.170Z,2.83
2023-04-01T22:17:06.581Z,7.88
2023-04-01T22:20:26.185Z,4.22
2023-04-01T22:23:37.617Z,5.40
2023-04-01T22:27:15.065Z,5.68
2023-04-01T22:30:24.211Z,6.82
2023-04-01T22:33:32.203Z,6.53
2023-04-01T22:37:12.806Z,4.67
2023-04-01T22:40:26.403Z,5.75
2023-04-01T22:43:41.440Z,6.97
2023-04-01T22:46:50.106Z,5.87
2023-04-01T22:50:00.414Z,4.63
2023-04-01T22:53:36.360Z,5.38
2023-04-01T22:56:44.615Z,6.53
2023-04-01T23:00:12.622Z,6.18
2023-04-01T23:03:22.634Z,6.68
2023-04-01T23:06:36.341Z,7.40
2023-04-01T23:09:39.534Z,6.97
2023-04-01T23:12:42.263Z,7.40
2023-04-01T23:15:45.301Z,7.25
2023-04-01T23:18:57.942Z,5.50
2023-04-01T23:22:12.630Z,5.65
2023-04-01T23:25:36.113Z,5.53
2023-04-01T23:28:46.482Z,4.90
2023-04-01T23:31:57.558Z,4.80
2023-04-01T23:35:01.089Z,6.05
2023-04-01T23:38:03.512Z,5.85
2023-04-01T23:41:07.156Z,4.37
2023-04-01T23:44:13.746Z,4.70
2023-04-01T23:47:23.192Z,4.20
2023-04-01T23:50:27.530Z,3.93
2023-04-01T23:53:35.873Z,3.70
2023-04-01T23:56:54.851Z,4.03
